Time;durP1;ratioP1;P1;durP2;ratioP2;P2;SDS_P1;SDS_P2;PMS_P1;PMS_P2;Temp;Humidity;BMP_temperature;BMP_pressure;BME280_temperature;BME280_humidity;BME280_pressure;Samples;Min_cycle;Max_cycle;Signal;HPM_P1;HPM_P2
2021/04/19 00:01:42;;;;;;;;;;;9.30;59.00;;;;;;4941570;29;19961;-90
2021/04/19 00:04:08;;;;;;;;;;;9.20;59.10;;;;;;4936765;29;19918;-89
2021/04/19 00:06:33;;;;;;;;;;;9.20;59.20;;;;;;4935543;29;19927;-88
2021/04/19 00:08:59;;;;;;;;;;;9.20;59.30;;;;;;4927110;29;19918;-88
2021/04/19 00:11:24;;;;;;;;;;;9.10;59.30;;;;;;4925859;29;19918;-89
2021/04/19 00:13:50;;;;;;;;;;;9.10;59.50;;;;;;4935798;29;19911;-88
2021/04/19 00:16:15;;;;;;;;;;;9.10;59.60;;;;;;4925493;29;20394;-89
2021/04/19 00:18:41;;;;;;;;;;;9.00;59.70;;;;;;4936248;29;20362;-87
2021/04/19 00:21:06;;;;;;;;;;;8.90;59.90;;;;;;4950787;29;19958;-89
2021/04/19 00:23:32;;;;;;;;;;;8.90;60.10;;;;;;4935180;29;19907;-89
2021/04/19 00:25:57;;;;;;;;;;;8.90;60.30;;;;;;4934533;29;19953;-90
2021/04/19 00:28:23;;;;;;;;;;;8.80;60.40;;;;;;4934109;29;19911;-90
2021/04/19 00:30:48;;;;;;;;;;;8.70;60.50;;;;;;4927278;29;19921;-89
2021/04/19 00:33:14;;;;;;;;;;;8.70;60.80;;;;;;4935838;29;19921;-89
2021/04/19 00:35:40;;;;;;;;;;;8.60;60.90;;;;;;4936227;29;19910;-89
2021/04/19 00:38:05;;;;;;;;;;;8.60;61.00;;;;;;4936771;29;19910;-89
2021/04/19 00:40:31;;;;;;;;;;;8.60;61.30;;;;;;4936022;29;19907;-89
2021/04/19 00:42:57;;;;;;;;;;;8.50;61.30;;;;;;4936109;29;19906;-89
2021/04/19 00:45:22;;;;;;;;;;;8.50;61.30;;;;;;4935486;29;19918;-89
2021/04/19 00:47:49;;;;;;;;;;;8.50;61.50;;;;;;4935500;29;19917;-89
2021/04/19 00:50:19;;;;;;;;;;;8.40;61.50;;;;;;4940664;29;19958;-89
2021/04/19 00:52:45;;;;;;;;;;;8.40;61.70;;;;;;4923479;29;20588;-89
2021/04/19 00:55:12;;;;;;;;;;;8.40;61.90;;;;;;4938066;29;19915;-91
2021/04/19 00:57:37;;;;;;;;;;;8.30;62.00;;;;;;4934718;29;19907;-90
2021/04/19 01:00:04;;;;;;;;;;;8.30;62.10;;;;;;4935813;29;19907;-90
2021/04/19 01:02:30;;;;;;;;;;;8.30;62.20;;;;;;4952376;28;19942;-88
2021/04/19 01:04:55;;;;;;;;;;;8.30;62.20;;;;;;4952775;28;19991;-90
2021/04/19 01:07:21;;;;;;;;;;;8.30;62.30;;;;;;4937493;29;20014;-89
2021/04/19 01:09:46;;;;;;;;;;;8.20;62.40;;;;;;4947308;29;19953;-88
2021/04/19 01:12:12;;;;;;;;;;;8.30;62.50;;;;;;4940514;28;19913;-89
2021/04/19 01:14:37;;;;;;;;;;;8.20;62.50;;;;;;4929143;29;20008;-89
2021/04/19 01:17:03;;;;;;;;;;;8.20;63.30;;;;;;4935146;29;19910;-89
2021/04/19 01:19:28;;;;;;;;;;;8.10;62.80;;;;;;4935118;29;19907;-88
2021/04/19 01:21:54;;;;;;;;;;;8.10;62.90;;;;;;4932744;29;19954;-89
2021/04/19 01:24:19;;;;;;;;;;;8.10;63.20;;;;;;4943201;28;20272;-89
2021/04/19 01:26:45;;;;;;;;;;;8.10;63.20;;;;;;4939032;29;19919;-89
2021/04/19 01:29:10;;;;;;;;;;;8.00;63.40;;;;;;4935301;29;19906;-91
2021/04/19 01:31:35;;;;;;;;;;;7.90;63.40;;;;;;4938165;29;20005;-87
2021/04/19 01:34:01;;;;;;;;;;;7.90;63.70;;;;;;4945926;29;19943;-90
2021/04/19 01:36:26;;;;;;;;;;;7.80;63.80;;;;;;4933794;29;20009;-89
2021/04/19 01:38:52;;;;;;;;;;;7.80;64.10;;;;;;4935045;29;19914;-89
2021/04/19 01:41:17;;;;;;;;;;;7.80;64.20;;;;;;4945077;29;19914;-90
2021/04/19 01:43:43;;;;;;;;;;;7.70;64.50;;;;;;4936878;29;19913;-89
2021/04/19 01:46:08;;;;;;;;;;;7.70;64.70;;;;;;4936622;29;19918;-89
2021/04/19 01:48:34;;;;;;;;;;;7.60;64.90;;;;;;4935767;29;19910;-89
2021/04/19 01:50:59;;;;;;;;;;;7.60;65.10;;;;;;4933560;29;19906;-90
2021/04/19 01:53:25;;;;;;;;;;;7.60;65.40;;;;;;4945610;29;19965;-89
2021/04/19 01:55:50;;;;;;;;;;;7.50;65.50;;;;;;4940016;28;19942;-88
2021/04/19 01:58:26;;;;;;;;;;;7.50;65.80;;;;;;4930773;29;19955;-88
2021/04/19 02:00:53;;;;;;;;;;;7.40;66.10;;;;;;4935979;29;19941;-87
2021/04/19 02:03:37;;;;;;;;;;;7.30;66.30;;;;;;4937559;28;19958;-87
2021/04/19 02:06:18;;;;;;;;;;;7.30;66.40;;;;;;4949325;28;19959;-88
2021/04/19 02:08:49;;;;;;;;;;;7.30;66.40;;;;;;4935149;28;19911;-89
2021/04/19 02:11:21;;;;;;;;;;;7.20;66.30;;;;;;4929969;28;20574;-88
2021/04/19 02:14:05;;;;;;;;;;;7.20;66.40;;;;;;4933060;29;19997;-89
2021/04/19 02:16:49;;;;;;;;;;;7.20;66.40;;;;;;4932276;29;19916;-89
2021/04/19 02:19:26;;;;;;;;;;;7.20;66.30;;;;;;4927978;29;20397;-89
2021/04/19 02:21:54;;;;;;;;;;;7.20;66.20;;;;;;4937922;29;19911;-88
2021/04/19 02:24:21;;;;;;;;;;;7.30;66.20;;;;;;4943871;28;19955;-88
2021/04/19 02:26:55;;;;;;;;;;;7.30;66.20;;;;;;4928234;29;19919;-89
2021/04/19 02:29:31;;;;;;;;;;;7.30;66.20;;;;;;4932194;29;20136;-89
2021/04/19 02:31:59;;;;;;;;;;;7.30;66.10;;;;;;4953271;28;19917;-89
2021/04/19 02:34:26;;;;;;;;;;;7.30;66.10;;;;;;4934371;29;19911;-87
2021/04/19 02:36:52;;;;;;;;;;;7.30;66.20;;;;;;4932508;29;20362;-88
2021/04/19 02:39:18;;;;;;;;;;;7.20;66.30;;;;;;4932556;29;19988;-88
2021/04/19 02:41:47;;;;;;;;;;;7.20;66.40;;;;;;4934050;29;19918;-89
2021/04/19 02:44:14;;;;;;;;;;;7.20;66.50;;;;;;4913783;29;19907;-89
2021/04/19 02:46:39;;;;;;;;;;;7.20;66.70;;;;;;4928450;29;19962;-88
2021/04/19 02:49:06;;;;;;;;;;;7.10;66.90;;;;;;4933472;29;19990;-88
2021/04/19 02:51:32;;;;;;;;;;;7.00;67.00;;;;;;4941623;29;19997;-88
2021/04/19 02:53:58;;;;;;;;;;;7.00;67.20;;;;;;4935871;29;19906;-88
2021/04/19 02:56:23;;;;;;;;;;;6.90;67.80;;;;;;4936435;29;19925;-87
2021/04/19 02:59:08;;;;;;;;;;;6.90;68.00;;;;;;4930821;29;20009;-87
2021/04/19 03:01:35;;;;;;;;;;;6.90;68.30;;;;;;4946721;28;19910;-86
2021/04/19 03:04:08;;;;;;;;;;;6.80;68.50;;;;;;4936408;28;19911;-87
2021/04/19 03:06:36;;;;;;;;;;;6.80;68.60;;;;;;4933978;29;19918;-86
2021/04/19 03:09:03;;;;;;;;;;;6.80;68.50;;;;;;4925962;29;19923;-88
2021/04/19 03:11:38;;;;;;;;;;;6.80;68.40;;;;;;4931829;29;19917;-87
2021/04/19 03:14:05;;;;;;;;;;;6.80;68.50;;;;;;4945645;28;19910;-88
2021/04/19 03:16:31;;;;;;;;;;;6.90;68.60;;;;;;4926147;29;19911;-88
2021/04/19 03:18:57;;;;;;;;;;;6.90;68.20;;;;;;4929385;29;19917;-87
2021/04/19 03:21:24;;;;;;;;;;;6.90;68.10;;;;;;4933561;29;20003;-87
2021/04/19 03:23:53;;;;;;;;;;;6.90;68.20;;;;;;4932452;29;20010;-88
2021/04/19 03:26:21;;;;;;;;;;;6.90;68.30;;;;;;4934963;29;19934;-87
2021/04/19 03:28:48;;;;;;;;;;;6.90;69.60;;;;;;4935675;29;19945;-88
2021/04/19 03:31:24;;;;;;;;;;;6.90;69.40;;;;;;4938462;29;19914;-88
2021/04/19 03:33:51;;;;;;;;;;;6.90;69.10;;;;;;4944745;28;19950;-87
2021/04/19 03:36:17;;;;;;;;;;;6.90;69.00;;;;;;4933501;29;20277;-88
2021/04/19 03:38:44;;;;;;;;;;;6.80;68.80;;;;;;4931501;29;19918;-87
2021/04/19 03:41:10;;;;;;;;;;;6.80;68.80;;;;;;4934747;29;19962;-87
2021/04/19 03:43:36;;;;;;;;;;;6.80;68.70;;;;;;4935941;29;19911;-86
2021/04/19 03:46:05;;;;;;;;;;;6.80;68.90;;;;;;4935331;29;20649;-87
2021/04/19 03:48:31;;;;;;;;;;;6.70;68.90;;;;;;4945105;29;19997;-87
2021/04/19 03:50:59;;;;;;;;;;;6.70;68.80;;;;;;4936566;28;20314;-88
2021/04/19 03:53:27;;;;;;;;;;;6.70;68.70;;;;;;4942564;28;19942;-88
2021/04/19 03:55:54;;;;;;;;;;;6.70;68.90;;;;;;4936310;29;20382;-89
2021/04/19 03:58:21;;;;;;;;;;;6.70;69.00;;;;;;4946595;28;19911;-90
2021/04/19 04:00:47;;;;;;;;;;;6.70;69.00;;;;;;4932849;29;19910;-88
2021/04/19 04:03:13;;;;;;;;;;;6.70;69.00;;;;;;4945547;28;20385;-89
2021/04/19 04:05:38;;;;;;;;;;;6.70;69.00;;;;;;4935537;29;19914;-87
2021/04/19 04:08:06;;;;;;;;;;;6.80;69.10;;;;;;4936522;29;20573;-88
2021/04/19 04:10:31;;;;;;;;;;;6.80;69.10;;;;;;4934215;29;19950;-89
2021/04/19 04:12:57;;;;;;;;;;;6.80;69.10;;;;;;4936474;29;19934;-89
2021/04/19 04:15:23;;;;;;;;;;;6.80;69.10;;;;;;4937898;29;19919;-93
2021/04/19 04:17:48;;;;;;;;;;;6.90;69.10;;;;;;4953596;28;19910;-89
2021/04/19 04:20:14;;;;;;;;;;;6.90;69.00;;;;;;4941482;29;19914;-91
2021/04/19 04:22:40;;;;;;;;;;;6.90;68.90;;;;;;4940510;29;19983;-90
2021/04/19 04:25:06;;;;;;;;;;;6.90;68.80;;;;;;4956571;28;19915;-94
2021/04/19 04:27:31;;;;;;;;;;;6.90;68.90;;;;;;4917460;29;19919;-92
2021/04/19 04:29:57;;;;;;;;;;;6.90;69.10;;;;;;4925673;29;19919;-92
2021/04/19 04:32:23;;;;;;;;;;;6.80;69.10;;;;;;4936681;28;19932;-94
2021/04/19 04:34:48;;;;;;;;;;;6.90;69.10;;;;;;4939255;28;20384;-93
2021/04/19 04:37:13;;;;;;;;;;;6.90;69.00;;;;;;4943658;29;20009;-94
2021/04/19 04:39:39;;;;;;;;;;;6.90;69.00;;;;;;4941952;29;20005;-94
2021/04/19 04:42:05;;;;;;;;;;;6.90;69.20;;;;;;4937351;29;19930;-93
2021/04/19 04:44:36;;;;;;;;;;;6.90;69.20;;;;;;4936017;29;19915;-91
2021/04/19 04:47:03;;;;;;;;;;;6.90;69.30;;;;;;4930454;28;20373;-92
2021/04/19 04:49:33;;;;;;;;;;;6.90;69.30;;;;;;4960616;28;19911;-92
2021/04/19 04:52:00;;;;;;;;;;;6.90;69.70;;;;;;4930980;29;19966;-92
2021/04/19 04:54:26;;;;;;;;;;;6.90;69.70;;;;;;4945524;29;19918;-93
2021/04/19 04:56:55;;;;;;;;;;;6.90;69.60;;;;;;4942602;29;19911;-95
2021/04/19 04:59:21;;;;;;;;;;;7.00;69.60;;;;;;4937058;29;19910;-93
2021/04/19 05:01:47;;;;;;;;;;;7.00;69.60;;;;;;4947107;29;19907;-95
2021/04/19 05:04:13;;;;;;;;;;;7.00;69.60;;;;;;4942375;29;19993;-94
2021/04/19 05:06:38;;;;;;;;;;;7.00;69.50;;;;;;4938988;29;19925;-94
2021/04/19 05:09:07;;;;;;;;;;;7.00;69.30;;;;;;4948113;29;19913;-93
2021/04/19 05:11:32;;;;;;;;;;;7.00;69.30;;;;;;4945789;29;19965;-93
2021/04/19 05:13:59;;;;;;;;;;;7.00;69.20;;;;;;4945491;29;19911;-93
2021/04/19 05:16:25;;;;;;;;;;;7.10;69.20;;;;;;4930963;29;20366;-92
2021/04/19 05:18:50;;;;;;;;;;;7.00;69.30;;;;;;4949956;29;19977;-92
2021/04/19 05:21:16;;;;;;;;;;;7.00;69.40;;;;;;4942680;28;19914;-92
2021/04/19 05:23:41;;;;;;;;;;;7.00;69.60;;;;;;4943224;29;20421;-91
2021/04/19 05:26:07;;;;;;;;;;;7.00;69.60;;;;;;4955272;28;19922;-89
2021/04/19 05:28:32;;;;;;;;;;;7.00;69.60;;;;;;4938517;29;20009;-90
2021/04/19 05:30:58;;;;;;;;;;;6.90;69.80;;;;;;4939741;29;19985;-89
2021/04/19 05:33:24;;;;;;;;;;;6.90;69.80;;;;;;4921955;29;19946;-88
2021/04/19 05:35:51;;;;;;;;;;;7.00;69.90;;;;;;4931524;29;19910;-87
2021/04/19 05:38:17;;;;;;;;;;;7.00;69.80;;;;;;4931937;29;19933;-87
2021/04/19 05:40:44;;;;;;;;;;;7.00;69.90;;;;;;4943153;28;19914;-88
2021/04/19 05:43:09;;;;;;;;;;;7.00;70.00;;;;;;4933776;29;19910;-86
2021/04/19 05:45:35;;;;;;;;;;;7.10;70.10;;;;;;4933094;29;19914;-88
2021/04/19 05:48:01;;;;;;;;;;;7.10;70.30;;;;;;4932006;29;20384;-85
2021/04/19 05:50:27;;;;;;;;;;;7.10;70.30;;;;;;4928143;29;19912;-86
2021/04/19 05:52:53;;;;;;;;;;;7.10;70.20;;;;;;4932219;29;19972;-87
2021/04/19 05:55:21;;;;;;;;;;;7.00;70.40;;;;;;4920838;29;20429;-87
2021/04/19 05:57:49;;;;;;;;;;;7.00;70.60;;;;;;4925497;29;19911;-86
2021/04/19 06:00:19;;;;;;;;;;;7.00;70.90;;;;;;4930325;29;20431;-86
2021/04/19 06:02:50;;;;;;;;;;;7.00;71.10;;;;;;4932741;29;19918;-87
2021/04/19 06:05:35;;;;;;;;;;;7.00;71.40;;;;;;4935184;29;19910;-87
2021/04/19 06:08:06;;;;;;;;;;;7.00;71.30;;;;;;4930576;29;19922;-87
2021/04/19 06:10:36;;;;;;;;;;;7.10;71.20;;;;;;4930151;29;20005;-87
2021/04/19 06:13:02;;;;;;;;;;;7.10;71.10;;;;;;4936020;29;19917;-88
2021/04/19 06:15:28;;;;;;;;;;;7.20;71.00;;;;;;4931929;28;20466;-87
2021/04/19 06:17:55;;;;;;;;;;;7.30;71.30;;;;;;4932382;29;19958;-88
2021/04/19 06:20:21;;;;;;;;;;;7.30;71.30;;;;;;4938623;29;19966;-88
2021/04/19 06:22:50;;;;;;;;;;;7.30;71.40;;;;;;4935446;28;19911;-90
2021/04/19 06:25:18;;;;;;;;;;;7.40;71.70;;;;;;4938434;29;19917;-90
2021/04/19 06:27:44;;;;;;;;;;;7.40;71.80;;;;;;4951376;28;19926;-88
2021/04/19 06:30:13;;;;;;;;;;;7.40;72.10;;;;;;4941312;29;20004;-89
2021/04/19 06:32:39;;;;;;;;;;;7.40;72.10;;;;;;4938271;28;19918;-89
2021/04/19 06:35:05;;;;;;;;;;;7.40;72.20;;;;;;4939205;29;20373;-89
2021/04/19 06:37:30;;;;;;;;;;;7.30;73.90;;;;;;4943986;29;19921;-89
2021/04/19 06:39:56;;;;;;;;;;;7.30;73.80;;;;;;4937685;29;19998;-87
2021/04/19 06:42:21;;;;;;;;;;;7.30;73.90;;;;;;4942338;29;19919;-89
2021/04/19 06:44:47;;;;;;;;;;;7.30;74.40;;;;;;4941505;29;19934;-92
2021/04/19 06:47:13;;;;;;;;;;;7.40;73.70;;;;;;4952552;28;19971;-94
2021/04/19 06:49:39;;;;;;;;;;;7.40;74.30;;;;;;4942117;29;19914;-93
2021/04/19 06:52:05;;;;;;;;;;;7.50;73.90;;;;;;4945222;28;19914;-94
2021/04/19 06:54:31;;;;;;;;;;;7.50;74.50;;;;;;4942300;29;19917;-93
2021/04/19 06:56:59;;;;;;;;;;;7.50;74.50;;;;;;4939082;29;19925;-89
2021/04/19 06:59:25;;;;;;;;;;;7.60;74.50;;;;;;4936699;29;19936;-93
2021/04/19 07:01:53;;;;;;;;;;;7.60;74.30;;;;;;4934573;29;19911;-89
2021/04/19 07:04:19;;;;;;;;;;;7.70;74.80;;;;;;4936022;29;20005;-87
2021/04/19 07:06:46;;;;;;;;;;;7.80;74.60;;;;;;4951551;29;19927;-89
2021/04/19 07:09:28;;;;;;;;;;;8.00;74.50;;;;;;4949938;29;19921;-88
2021/04/19 07:12:02;;;;;;;;;;;8.30;74.40;;;;;;4943027;29;19915;-87
2021/04/19 07:14:29;;;;;;;;;;;8.60;74.20;;;;;;4938794;28;19914;-89
2021/04/19 07:16:55;;;;;;;;;;;9.20;73.10;;;;;;4942549;29;19918;-89
2021/04/19 07:19:21;;;;;;;;;;;10.70;71.20;;;;;;4941995;29;19907;-90
2021/04/19 07:21:47;;;;;;;;;;;10.90;68.70;;;;;;4943516;28;19915;-88
2021/04/19 07:24:13;;;;;;;;;;;10.60;68.80;;;;;;4941776;28;19931;-88
2021/04/19 07:26:42;;;;;;;;;;;10.40;69.30;;;;;;4937991;28;20010;-91
2021/04/19 07:29:08;;;;;;;;;;;10.20;70.60;;;;;;4954684;28;20011;-88
2021/04/19 07:31:50;;;;;;;;;;;10.10;71.10;;;;;;4932997;28;19992;-90
2021/04/19 07:34:19;;;;;;;;;;;10.00;71.60;;;;;;4942582;29;19915;-88
2021/04/19 07:36:49;;;;;;;;;;;10.00;72.20;;;;;;4941598;29;19970;-88
2021/04/19 07:39:16;;;;;;;;;;;10.10;72.30;;;;;;4932916;29;19962;-89
2021/04/19 07:41:47;;;;;;;;;;;10.30;73.00;;;;;;4948162;28;20380;-90
2021/04/19 07:44:33;;;;;;;;;;;11.10;71.40;;;;;;4943777;28;19910;-92
2021/04/19 07:47:21;;;;;;;;;;;11.50;69.70;;;;;;4929598;29;19918;-91
2021/04/19 07:50:09;;;;;;;;;;;11.60;69.20;;;;;;4957794;28;20297;-90
2021/04/19 07:52:56;;;;;;;;;;;11.40;69.60;;;;;;4945109;29;20680;-91
2021/04/19 07:55:25;;;;;;;;;;;11.20;70.70;;;;;;4947441;28;19910;-92
2021/04/19 07:57:59;;;;;;;;;;;11.00;71.60;;;;;;4935652;29;19911;-90
2021/04/19 08:00:34;;;;;;;;;;;10.90;72.20;;;;;;4933936;29;19911;-91
2021/04/19 08:03:00;;;;;;;;;;;10.80;72.70;;;;;;4939965;29;19914;-91
2021/04/19 08:05:30;;;;;;;;;;;10.80;73.10;;;;;;4933589;29;19918;-89
2021/04/19 08:07:55;;;;;;;;;;;10.70;75.20;;;;;;4931687;29;19918;-91
2021/04/19 08:10:22;;;;;;;;;;;10.60;75.50;;;;;;4935152;29;19930;-90
2021/04/19 08:12:48;;;;;;;;;;;10.60;75.20;;;;;;4939418;28;19907;-90
2021/04/19 08:15:17;;;;;;;;;;;10.50;75.20;;;;;;4932990;29;19918;-88
2021/04/19 08:17:42;;;;;;;;;;;10.50;75.50;;;;;;4935153;29;19915;-90
2021/04/19 08:20:10;;;;;;;;;;;10.40;76.30;;;;;;4931446;29;19917;-90
2021/04/19 08:22:36;;;;;;;;;;;10.40;76.30;;;;;;4933989;28;19915;-88
2021/04/19 08:25:13;;;;;;;;;;;10.50;76.50;;;;;;4931238;29;19998;-87
2021/04/19 08:27:40;;;;;;;;;;;10.50;76.50;;;;;;4932958;29;19926;-88
2021/04/19 08:30:07;;;;;;;;;;;10.50;76.90;;;;;;4932007;29;19961;-88
2021/04/19 08:32:32;;;;;;;;;;;10.60;76.50;;;;;;4919767;29;19967;-89
2021/04/19 08:34:59;;;;;;;;;;;10.50;77.20;;;;;;4928199;29;19915;-89
2021/04/19 08:37:28;;;;;;;;;;;10.50;77.80;;;;;;4940131;28;19926;-88
2021/04/19 08:39:58;;;;;;;;;;;10.30;78.10;;;;;;4929239;29;19942;-89
2021/04/19 08:42:24;;;;;;;;;;;10.20;78.40;;;;;;4931493;29;19918;-90
2021/04/19 08:44:55;;;;;;;;;;;10.20;78.50;;;;;;4930227;29;19915;-89
2021/04/19 08:47:26;;;;;;;;;;;10.30;78.10;;;;;;4932365;29;19925;-91
2021/04/19 08:49:52;;;;;;;;;;;10.50;78.00;;;;;;4931728;29;20313;-91
2021/04/19 08:52:18;;;;;;;;;;;10.80;77.30;;;;;;4932375;29;19914;-93
2021/04/19 08:54:44;;;;;;;;;;;11.10;77.10;;;;;;4932205;29;19915;-89
2021/04/19 08:57:10;;;;;;;;;;;10.90;77.30;;;;;;4932192;29;19914;-92
2021/04/19 08:59:36;;;;;;;;;;;11.00;77.50;;;;;;4934493;29;20354;-92
2021/04/19 09:02:03;;;;;;;;;;;11.10;77.40;;;;;;4933137;29;20048;-94
2021/04/19 09:04:28;;;;;;;;;;;11.10;77.40;;;;;;4939107;29;19907;-93
2021/04/19 09:06:54;;;;;;;;;;;11.10;77.20;;;;;;4934986;28;19922;-93
2021/04/19 09:09:32;;;;;;;;;;;11.20;77.10;;;;;;4932844;29;19993;-93
2021/04/19 09:11:59;;;;;;;;;;;11.30;76.50;;;;;;4941983;28;19969;-95
2021/04/19 09:14:33;;;;;;;;;;;11.40;76.70;;;;;;4940331;29;19915;-95
2021/04/19 09:17:01;;;;;;;;;;;11.50;75.60;;;;;;4934448;29;19926;-92
2021/04/19 09:19:28;;;;;;;;;;;11.70;75.30;;;;;;4929606;29;19918;-91
2021/04/19 09:22:05;;;;;;;;;;;11.60;75.60;;;;;;4944082;28;19914;-94
2021/04/19 09:24:52;;;;;;;;;;;11.60;75.90;;;;;;4924446;29;20374;-94
2021/04/19 09:27:37;;;;;;;;;;;11.70;75.90;;;;;;4936652;29;19961;-92
2021/04/19 09:30:26;;;;;;;;;;;11.80;76.30;;;;;;4936113;29;20009;-95
2021/04/19 09:33:04;;;;;;;;;;;11.70;76.00;;;;;;4950209;28;19933;-93
2021/04/19 09:35:36;;;;;;;;;;;11.90;76.10;;;;;;4964103;28;19910;-94
2021/04/19 09:38:01;;;;;;;;;;;11.90;75.80;;;;;;4933804;29;19918;-88
2021/04/19 09:40:27;;;;;;;;;;;12.00;75.20;;;;;;4942824;29;19910;-87
2021/04/19 09:43:07;;;;;;;;;;;12.00;74.80;;;;;;4943400;29;19968;-88
2021/04/19 09:45:45;;;;;;;;;;;12.10;74.80;;;;;;4949037;28;20322;-89
2021/04/19 09:48:26;;;;;;;;;;;12.20;74.40;;;;;;4925219;29;19914;-88
2021/04/19 09:50:52;;;;;;;;;;;12.40;73.90;;;;;;4933898;29;19942;-87
2021/04/19 09:53:17;;;;;;;;;;;12.50;73.50;;;;;;4937018;29;20365;-85
2021/04/19 09:55:43;;;;;;;;;;;12.80;73.20;;;;;;4930359;29;19918;-85
2021/04/19 09:58:08;;;;;;;;;;;13.00;72.10;;;;;;4941844;29;19961;-86
2021/04/19 10:00:34;;;;;;;;;;;13.20;71.90;;;;;;4942460;29;19965;-87
2021/04/19 10:03:00;;;;;;;;;;;13.30;71.30;;;;;;4952891;29;19917;-89
2021/04/19 10:05:25;;;;;;;;;;;13.40;70.80;;;;;;4943870;29;20357;-91
2021/04/19 10:07:51;;;;;;;;;;;13.50;70.50;;;;;;4944131;29;19914;-89
2021/04/19 10:10:18;;;;;;;;;;;13.40;69.40;;;;;;4938440;29;19942;-90
2021/04/19 10:12:46;;;;;;;;;;;13.20;69.60;;;;;;4939326;29;19925;-91
2021/04/19 10:15:19;;;;;;;;;;;13.10;69.80;;;;;;4930589;29;19941;-90
2021/04/19 10:17:44;;;;;;;;;;;13.10;69.80;;;;;;4937492;28;20181;-91
2021/04/19 10:20:19;;;;;;;;;;;13.20;69.60;;;;;;4932099;29;19965;-91
2021/04/19 10:22:45;;;;;;;;;;;13.30;69.70;;;;;;4930019;29;19913;-92
2021/04/19 10:25:13;;;;;;;;;;;13.40;69.30;;;;;;4947878;28;19907;-92
2021/04/19 10:27:40;;;;;;;;;;;13.50;69.10;;;;;;4938334;29;19919;-93
2021/04/19 10:30:11;;;;;;;;;;;13.50;68.80;;;;;;4935431;29;19922;-90
2021/04/19 10:32:37;;;;;;;;;;;13.50;68.50;;;;;;4942873;29;19970;-90
2021/04/19 10:35:26;;;;;;;;;;;13.50;68.30;;;;;;4935406;29;19950;-90
2021/04/19 10:37:51;;;;;;;;;;;13.60;68.40;;;;;;4923996;29;19915;-92
2021/04/19 10:40:17;;;;;;;;;;;13.70;67.90;;;;;;4926471;29;19994;-91
2021/04/19 10:42:42;;;;;;;;;;;13.90;68.40;;;;;;4952059;28;19915;-89
2021/04/19 10:45:08;;;;;;;;;;;13.90;67.10;;;;;;4933305;29;19910;-89
2021/04/19 10:47:34;;;;;;;;;;;14.10;66.90;;;;;;4949678;29;19957;-92
2021/04/19 10:49:59;;;;;;;;;;;14.10;66.10;;;;;;4937459;28;20297;-90
2021/04/19 10:52:25;;;;;;;;;;;14.20;66.20;;;;;;4935150;29;19919;-89
2021/04/19 10:54:50;;;;;;;;;;;14.30;66.10;;;;;;4937825;29;19918;-89
2021/04/19 10:57:20;;;;;;;;;;;14.20;65.40;;;;;;4939742;28;19914;-88
2021/04/19 10:59:48;;;;;;;;;;;14.20;65.40;;;;;;4940907;28;19921;-90
2021/04/19 11:02:25;;;;;;;;;;;14.30;65.70;;;;;;4949435;29;19922;-93
2021/04/19 11:04:51;;;;;;;;;;;14.60;65.60;;;;;;4933385;29;19929;-92
2021/04/19 11:07:41;;;;;;;;;;;14.80;64.90;;;;;;4947618;29;19930;-93
2021/04/19 11:10:25;;;;;;;;;;;15.10;64.40;;;;;;4948600;28;19910;-94
2021/04/19 11:13:04;;;;;;;;;;;15.20;62.50;;;;;;4953597;28;20351;-96
2021/04/19 11:15:39;;;;;;;;;;;15.10;62.30;;;;;;4954233;29;19907;-96
2021/04/19 11:18:21;;;;;;;;;;;15.00;60.80;;;;;;4940003;28;19919;-94
2021/04/19 11:20:47;;;;;;;;;;;14.70;61.60;;;;;;4942951;28;19918;-95
2021/04/19 11:23:39;;;;;;;;;;;14.60;61.90;;;;;;4948423;29;20033;-95
2021/04/19 11:26:11;;;;;;;;;;;14.60;62.10;;;;;;4947115;28;19914;-93
2021/04/19 11:28:51;;;;;;;;;;;14.70;62.40;;;;;;4941536;28;20017;-93
2021/04/19 11:31:19;;;;;;;;;;;14.80;61.60;;;;;;4944858;29;20009;-93
2021/04/19 11:33:45;;;;;;;;;;;14.90;61.80;;;;;;4942979;28;19925;-96
2021/04/19 11:36:33;;;;;;;;;;;14.90;61.10;;;;;;4934508;28;19911;-96
2021/04/19 11:39:09;;;;;;;;;;;14.80;60.00;;;;;;4938260;29;20385;-92
2021/04/19 11:41:36;;;;;;;;;;;14.70;60.50;;;;;;4944293;29;19954;-91
2021/04/19 11:44:01;;;;;;;;;;;14.60;60.20;;;;;;4940769;29;20009;-92
2021/04/19 11:46:27;;;;;;;;;;;14.40;60.70;;;;;;4934069;29;20066;-92
2021/04/19 11:48:53;;;;;;;;;;;14.40;60.80;;;;;;4935723;29;19906;-93
2021/04/19 11:51:19;;;;;;;;;;;14.30;60.80;;;;;;4949788;29;19906;-93
2021/04/19 11:53:46;;;;;;;;;;;14.30;61.40;;;;;;4941436;28;19942;-93
2021/04/19 11:56:23;;;;;;;;;;;14.30;61.70;;;;;;4937635;29;19910;-92
2021/04/19 11:58:49;;;;;;;;;;;14.30;61.70;;;;;;4927904;29;19915;-92
2021/04/19 12:01:18;;;;;;;;;;;14.30;61.50;;;;;;4945404;29;19910;-92
2021/04/19 12:03:48;;;;;;;;;;;14.40;61.40;;;;;;4939561;29;19911;-92
2021/04/19 12:06:14;;;;;;;;;;;14.40;60.90;;;;;;4941881;28;19923;-93
2021/04/19 12:08:42;;;;;;;;;;;14.40;60.90;;;;;;4933968;29;20266;-91
2021/04/19 12:11:17;;;;;;;;;;;14.50;60.70;;;;;;4936134;29;19919;-92
2021/04/19 12:13:47;;;;;;;;;;;14.50;60.60;;;;;;4956809;28;19918;-91
2021/04/19 12:16:14;;;;;;;;;;;14.50;60.50;;;;;;4970897;28;19954;-91
2021/04/19 12:18:40;;;;;;;;;;;14.50;60.10;;;;;;4936390;29;20720;-91
2021/04/19 12:21:07;;;;;;;;;;;14.50;60.30;;;;;;4938664;29;19915;-92
2021/04/19 12:23:40;;;;;;;;;;;14.50;60.20;;;;;;4936203;29;19914;-94
2021/04/19 12:26:05;;;;;;;;;;;14.50;60.50;;;;;;4934043;29;19923;-92
2021/04/19 12:28:31;;;;;;;;;;;14.60;60.50;;;;;;4931819;29;20337;-91
2021/04/19 12:31:01;;;;;;;;;;;14.60;60.50;;;;;;4936374;29;20385;-91
2021/04/19 12:33:27;;;;;;;;;;;14.60;59.70;;;;;;4937831;29;19945;-91
2021/04/19 12:35:52;;;;;;;;;;;14.60;59.20;;;;;;4937837;29;20381;-90
2021/04/19 12:38:18;;;;;;;;;;;14.60;58.90;;;;;;4938959;29;19917;-93
2021/04/19 12:40:44;;;;;;;;;;;14.50;58.70;;;;;;4941105;29;20281;-91
2021/04/19 12:43:10;;;;;;;;;;;14.50;58.80;;;;;;4937429;29;19954;-91
2021/04/19 12:45:36;;;;;;;;;;;14.50;59.00;;;;;;4932932;28;19949;-89
2021/04/19 12:48:06;;;;;;;;;;;14.60;59.00;;;;;;4935952;29;20016;-90
2021/04/19 12:50:32;;;;;;;;;;;14.80;59.00;;;;;;4934177;29;19920;-89
2021/04/19 12:53:02;;;;;;;;;;;14.90;58.60;;;;;;4939390;29;20009;-91
2021/04/19 12:55:27;;;;;;;;;;;15.00;58.40;;;;;;4934269;29;19915;-89
2021/04/19 12:57:53;;;;;;;;;;;15.20;57.90;;;;;;4939258;28;19936;-90
2021/04/19 13:00:19;;;;;;;;;;;15.30;57.80;;;;;;4942960;29;20365;-91
2021/04/19 13:02:48;;;;;;;;;;;15.20;57.50;;;;;;4948092;28;19973;-89
2021/04/19 13:05:16;;;;;;;;;;;15.30;57.80;;;;;;4938143;29;20328;-90
2021/04/19 13:07:41;;;;;;;;;;;15.20;57.80;;;;;;4940016;28;19974;-89
2021/04/19 13:10:07;;;;;;;;;;;15.20;57.60;;;;;;4934044;29;19914;-88
2021/04/19 13:12:35;;;;;;;;;;;15.20;58.00;;;;;;4935156;28;19953;-88
2021/04/19 13:15:03;;;;;;;;;;;15.20;57.10;;;;;;4932286;28;19910;-90
2021/04/19 13:17:31;;;;;;;;;;;15.10;57.70;;;;;;4932472;29;19950;-88
2021/04/19 13:19:58;;;;;;;;;;;15.20;57.90;;;;;;4939700;28;19923;-90
2021/04/19 13:22:46;;;;;;;;;;;15.30;57.80;;;;;;4940190;29;20014;-88
2021/04/19 13:25:18;;;;;;;;;;;15.20;57.70;;;;;;4933397;29;19910;-88
2021/04/19 13:27:57;;;;;;;;;;;15.30;58.00;;;;;;4943780;29;20262;-89
2021/04/19 13:30:49;;;;;;;;;;;15.40;57.90;;;;;;4953511;28;20414;-90
2021/04/19 13:33:17;;;;;;;;;;;15.70;57.90;;;;;;4958157;28;20366;-89
2021/04/19 13:35:52;;;;;;;;;;;15.80;57.20;;;;;;4933744;28;19907;-91
2021/04/19 13:38:18;;;;;;;;;;;15.80;57.10;;;;;;4952359;28;19985;-89
2021/04/19 13:40:43;;;;;;;;;;;16.00;56.90;;;;;;4930990;29;20002;-90
2021/04/19 13:43:09;;;;;;;;;;;16.00;56.30;;;;;;4937980;29;19911;-91
2021/04/19 13:45:34;;;;;;;;;;;16.00;56.20;;;;;;4936427;29;20143;-88
2021/04/19 13:48:01;;;;;;;;;;;16.00;55.90;;;;;;4919731;29;19918;-91
2021/04/19 13:50:26;;;;;;;;;;;16.00;55.80;;;;;;4938857;28;20003;-91
2021/04/19 13:52:52;;;;;;;;;;;16.10;55.70;;;;;;4943895;29;20011;-91
2021/04/19 13:55:18;;;;;;;;;;;16.10;55.50;;;;;;4945797;29;20281;-90
2021/04/19 13:57:45;;;;;;;;;;;16.20;55.40;;;;;;4940951;29;19966;-90
2021/04/19 14:00:12;;;;;;;;;;;16.10;54.90;;;;;;4939218;28;19911;-90
2021/04/19 14:02:37;;;;;;;;;;;16.10;54.90;;;;;;4935046;29;19922;-91
2021/04/19 14:05:03;;;;;;;;;;;16.10;55.00;;;;;;4926154;29;19919;-89
2021/04/19 14:07:28;;;;;;;;;;;16.10;54.40;;;;;;4930465;29;19919;-90
2021/04/19 14:09:56;;;;;;;;;;;16.10;54.60;;;;;;4930287;29;20345;-88
2021/04/19 14:12:22;;;;;;;;;;;16.20;54.50;;;;;;4934915;29;19993;-89
2021/04/19 14:14:48;;;;;;;;;;;16.20;54.30;;;;;;4931299;28;20545;-88
2021/04/19 14:17:13;;;;;;;;;;;16.10;54.50;;;;;;4929397;29;20011;-89
2021/04/19 14:19:39;;;;;;;;;;;16.20;54.60;;;;;;4932495;29;20017;-88
2021/04/19 14:22:04;;;;;;;;;;;16.20;54.60;;;;;;4935114;29;19949;-90
2021/04/19 14:24:30;;;;;;;;;;;16.30;54.60;;;;;;4938967;29;19925;-89
2021/04/19 14:26:57;;;;;;;;;;;16.30;55.00;;;;;;4935012;29;19919;-89
2021/04/19 14:29:22;;;;;;;;;;;16.30;55.60;;;;;;4942383;29;19910;-89
2021/04/19 14:31:49;;;;;;;;;;;16.40;56.00;;;;;;4932312;28;20246;-90